Longmire, WA

4:51 AM PDT on April 26, 2017 (GMT -0700)
| | Change Station

Elev -9999 ft 0.00 °N, 0.00 °E | Updated 2 minutes ago

Rain
Rain
°F
Feels Like °F
N
Wind Variable Wind from North
Gusts mph

Today
High -- | Low -- °F
--% Chance of Precip.
Yesterday
High -- | Low -- °F
Precip. -- in
Pressure 29.76 in
Visibility 7.0 miles
Clouds Scattered Clouds 1100 ft
Mostly Cloudy 1700 ft
Mostly Cloudy 2600 ft
Dew Point Not available.
Humidity Not available.
Rainfall --
Snow Depth Not available.
5:59 AM 8:10 PM
Waning Crescent, 0% visible
METAR KSMP 261056Z AUTO 29015G26KT 7SM UP SCT011 BKN017 BKN026 02/02 A2973 RMK AO2 PK WND 28029/0959 UPB47 SLP077 P0001 T00220022
Pressure 29.76 in
Visibility 7.0 miles
Clouds Scattered Clouds 1100 ft
Mostly Cloudy 1700 ft
Mostly Cloudy 2600 ft
Dew Point Not available.
Humidity Not available.
Rainfall --
Snow Depth Not available.
5:59 AM 8:10 PM
Waning Crescent, 0% visible
METAR KSMP 261056Z AUTO 29015G26KT 7SM UP SCT011 BKN017 BKN026 02/02 A2973 RMK AO2 PK WND 28029/0959 UPB47 SLP077 P0001 T00220022

Get Severe Weather Alerts

Thanks for signing up!

Be on the lookout for a verification email in your inbox.

You'll start receiving the daily forecast at 8 AM.

×

10-Day Weather Forecast

Almanac

Astronomy

Apr. 26, 2017 Rise Set
Actual Time
Civil Twilight
Nautical Twilight
Astronomical Twilight
Moon
Length of Visible Light
Length of Day
Tomorrow will be .
, % of the Moon is Illuminated

Today's Extremes

State Highs State Lows

Community

WunderPhotos

WunderBlog® & News

Nearby

Air Quality

  Air Quality AQ Index Pollutant
Not available.

Snow Depth

Station Depth Elevation

Earthquake Activity

City Distance Mag. Time & Date
Minimum magnitude displayed is 2.5.

Coastal Water Temperatures

Place Temperature

Stations

Nearby Weather Stations

Station Location Temp. Windchill Dew Point Humidity Wind Precip. Elev Updated Type
                   

Watches & Warnings

There are currently no watches in effect.